Time;durP1;ratioP1;P1;durP2;ratioP2;P2;SDS_P1;SDS_P2;PMS_P1;PMS_P2;Temp;Humidity;BMP_temperature;BMP_pressure;BME280_temperature;BME280_humidity;BME280_pressure;Samples;Min_cycle;Max_cycle;Signal;HPM_P1;HPM_P2
2023/03/02 00:01:03;;;;;;;20.83;19.10;;;-0.20;47.50;;;;;;2612481;54;20395;-69
2023/03/02 00:06:55;;;;;;;20.80;19.00;;;-0.40;66.00;;;;;;2613820;54;20351;-68
2023/03/02 00:12:42;;;;;;;21.17;19.40;;;-0.60;53.90;;;;;;2613373;54;20395;-69
2023/03/02 00:18:30;;;;;;;19.87;18.30;;;-0.70;61.80;;;;;;2612912;54;20129;-68
2023/03/02 00:24:17;;;;;;;20.50;18.70;;;-0.90;67.40;;;;;;2612396;54;20170;-69
2023/03/02 00:27:23;;;;;;;19.63;18.00;;;-0.90;72.90;;;;;;2613994;54;20392;-69
2023/03/02 00:29:49;;;;;;;21.37;19.33;;;-0.90;82.00;;;;;;2612526;54;20162;-69
2023/03/02 00:35:38;;;;;;;20.20;18.40;;;-0.90;77.80;;;;;;2612477;39;20510;-71
2023/03/02 00:41:26;;;;;;;20.27;18.47;;;-1.00;78.40;;;;;;2613628;54;20371;-69
2023/03/02 00:47:13;;;;;;;21.63;19.47;;;-1.10;84.80;;;;;;2613876;54;20138;-68
2023/03/02 00:53:03;;;;;;;20.27;18.37;;;-1.10;91.40;;;;;;2613061;54;20130;-69
2023/03/02 00:58:51;;;;;;;19.70;17.77;;;-1.30;95.90;;;;;;2612025;54;20379;-69
2023/03/02 01:04:41;;;;;;;20.80;19.00;;;-1.50;98.90;;;;;;2614005;54;20162;-69
2023/03/02 01:10:31;;;;;;;20.70;18.80;;;-1.40;99.90;;;;;;2613061;54;20380;-68
2023/03/02 01:16:19;;;;;;;21.50;19.60;;;-1.10;97.70;;;;;;2613768;54;20334;-69
2023/03/02 01:22:07;;;;;;;20.37;18.47;;;-0.70;76.10;;;;;;2613531;54;20234;-68
2023/03/02 01:31:54;;;;;;;19.87;18.10;;;-0.40;55.00;;;;;;2614381;54;20363;-68
2023/03/02 01:37:42;;;;;;;20.13;18.37;;;-0.30;52.20;;;;;;2613294;54;20342;-68
2023/03/02 01:43:30;;;;;;;19.37;17.87;;;-0.60;60.90;;;;;;2614405;54;20162;-68
2023/03/02 01:49:17;;;;;;;20.00;18.20;;;-0.70;62.40;;;;;;2613686;39;20433;-69
2023/03/02 01:55:09;;;;;;;18.97;17.50;;;-0.50;60.90;;;;;;2614385;54;20130;-68
2023/03/02 02:00:57;;;;;;;19.60;17.93;;;-0.50;58.30;;;;;;2612464;54;20374;-69
2023/03/02 02:13:03;;;;;;;19.80;18.10;;;-0.80;70.60;;;;;;2614123;54;20394;-69
2023/03/02 02:18:51;;;;;;;20.90;19.20;;;-1.00;73.20;;;;;;2613110;54;20665;-69
2023/03/02 02:24:48;;;;;;;19.47;17.77;;;-0.70;72.50;;;;;;2613483;54;20365;-69
2023/03/02 02:27:28;;;;;;;20.20;18.40;;;-0.70;67.30;;;;;;2613327;54;20928;-69
2023/03/02 02:29:57;;;;;;;19.50;17.80;;;-0.60;61.90;;;;;;2611240;54;20416;-70
2023/03/02 02:35:46;;;;;;;18.90;17.30;;;-0.80;61.70;;;;;;2612696;39;20962;-69
2023/03/02 02:41:38;;;;;;;20.07;18.33;;;-0.60;58.00;;;;;;2612830;46;20390;-69
2023/03/02 02:47:25;;;;;;;21.50;19.50;;;-0.80;62.70;;;;;;2613811;39;20847;-68
2023/03/02 02:53:18;;;;;;;20.37;18.50;;;-0.80;62.50;;;;;;2613337;39;20624;-69
2023/03/02 03:05:35;;;;;;;21.53;19.40;;;-1.20;78.80;;;;;;2613003;54;20366;-71
2023/03/02 03:11:26;;;;;;;19.73;17.93;;;-1.10;81.50;;;;;;2614376;54;20593;-71
2023/03/02 03:17:14;;;;;;;20.03;18.30;;;-1.30;83.10;;;;;;2614739;54;20414;-70
2023/03/02 03:23:02;;;;;;;21.33;19.40;;;-1.50;94.50;;;;;;2613876;54;20632;-70
2023/03/02 03:26:05;;;;;;;20.13;18.10;;;-1.70;95.60;;;;;;2614659;54;20424;-71
2023/03/02 03:38:53;;;;;;;19.27;16.93;;;-1.60;98.30;;;;;;2613222;54;20395;-72
2023/03/02 03:44:41;;;;;;;18.50;16.60;;;-1.60;99.80;;;;;;2612187;54;20358;-71
2023/03/02 03:50:28;;;;;;;21.10;18.77;;;-1.80;99.90;;;;;;2612889;54;20130;-69
2023/03/02 03:56:15;;;;;;;19.67;17.57;;;-1.90;99.90;;;;;;2612447;54;20122;-68
2023/03/02 04:02:02;;;;;;;18.53;16.63;;;-2.20;99.90;;;;;;2612201;46;20299;-72
2023/03/02 04:07:49;;;;;;;20.10;17.43;;;-2.40;99.90;;;;;;2611874;54;20144;-71
2023/03/02 04:13:37;;;;;;;20.77;16.80;;;-2.50;99.90;;;;;;2614101;54;20134;-72
2023/03/02 04:19:25;;;;;;;20.63;15.87;;;-2.50;99.90;;;;;;2614662;54;20223;-71
2023/03/02 04:25:18;;;;;;;18.83;16.83;;;-2.70;99.90;;;;;;2614111;54;20384;-71
2023/03/02 04:34:28;;;;;;;18.97;16.93;;;-2.60;99.90;;;;;;2614044;39;20765;-71
2023/03/02 04:40:16;;;;;;;19.07;16.60;;;-2.70;99.90;;;;;;2614202;54;20122;-72
2023/03/02 04:46:04;;;;;;;17.57;15.77;;;-2.60;99.90;;;;;;2613785;54;20458;-71
2023/03/02 04:51:52;;;;;;;17.13;14.97;;;-2.60;99.90;;;;;;2611483;54;20676;-72
2023/03/02 04:57:39;;;;;;;18.97;16.87;;;-2.50;99.90;;;;;;2614849;39;20540;-71
2023/03/02 05:03:27;;;;;;;19.00;16.30;;;-2.50;99.90;;;;;;2614298;54;20122;-70
2023/03/02 05:09:15;;;;;;;21.97;16.80;;;-2.50;99.90;;;;;;2613548;47;20616;-71
2023/03/02 05:15:03;;;;;;;18.53;16.57;;;-2.60;99.90;;;;;;2613987;54;20428;-70
2023/03/02 05:20:52;;;;;;;18.13;16.33;;;-2.00;99.90;;;;;;2613873;54;20916;-71
2023/03/02 05:26:40;;;;;;;18.87;16.93;;;-1.80;99.90;;;;;;2613611;54;20343;-71
2023/03/02 05:32:38;;;;;;;21.13;19.00;;;-1.60;98.40;;;;;;2612609;47;20912;-71
2023/03/02 05:38:30;;;;;;;19.77;17.87;;;-1.70;95.40;;;;;;2613026;54;20152;-71
2023/03/02 05:44:17;;;;;;;18.43;16.63;;;-1.70;94.80;;;;;;2612743;54;20375;-71
2023/03/02 05:53:26;;;;;;;19.63;17.47;;;-2.10;97.00;;;;;;2612104;54;20367;-71
2023/03/02 05:59:13;;;;;;;18.00;16.40;;;-2.30;99.90;;;;;;2611552;54;20737;-71
2023/03/02 06:05:00;;;;;;;18.17;16.37;;;-2.20;99.90;;;;;;2612853;54;20657;-71
2023/03/02 06:10:49;;;;;;;19.13;17.53;;;-2.00;99.90;;;;;;2614070;54;20122;-71
2023/03/02 06:16:37;;;;;;;18.87;17.03;;;-2.20;99.90;;;;;;2614698;54;20434;-72
2023/03/02 06:22:24;;;;;;;18.10;16.40;;;-2.30;99.90;;;;;;2614843;39;20539;-70
2023/03/02 06:28:12;;;;;;;19.27;17.53;;;-2.20;99.90;;;;;;2614722;54;20127;-76
2023/03/02 06:37:31;;;;;;;17.47;15.63;;;-2.00;99.90;;;;;;2613676;54;20448;-71
2023/03/02 06:43:19;;;;;;;20.93;16.60;;;-1.90;99.90;;;;;;2614960;39;20745;-71
2023/03/02 06:49:08;;;;;;;19.67;17.77;;;-1.50;97.50;;;;;;2609835;54;20170;-71
2023/03/02 06:54:56;;;;;;;18.83;17.00;;;-1.10;77.90;;;;;;2611192;54;20414;-70
2023/03/02 07:00:44;;;;;;;19.73;17.90;;;-0.80;58.60;;;;;;2612943;46;20138;-69
2023/03/02 07:06:31;;;;;;;20.67;17.77;;;-0.50;52.20;;;;;;2613565;54;20122;-70
2023/03/02 07:12:19;;;;;;;21.83;19.30;;;-0.40;47.10;;;;;;2611913;39;20539;-70
2023/03/02 07:18:07;;;;;;;20.40;18.47;;;-0.20;42.70;;;;;;2613512;54;20139;-69
2023/03/02 07:23:55;;;;;;;20.90;19.00;;;1.70;17.60;;;;;;2614424;54;20134;-70
2023/03/02 07:29:42;;;;;;;23.47;20.97;;;2.90;3.80;;;;;;2613097;46;20142;-70
2023/03/02 07:32:58;;;;;;;21.70;19.60;;;3.40;1.50;;;;;;2606069;54;20487;-70
2023/03/02 07:35:24;;;;;;;23.83;21.80;;;3.40;1.00;;;;;;2611748;54;20541;-69
2023/03/02 07:41:14;;;;;;;21.53;19.93;;;3.70;1.00;;;;;;2613090;54;20423;-69
2023/03/02 07:47:02;;;;;;;22.40;20.70;;;3.80;1.00;;;;;;2613826;54;20406;-70
2023/03/02 07:52:49;;;;;;;22.33;20.53;;;4.00;1.00;;;;;;2612927;39;20537;-69
2023/03/02 07:58:37;;;;;;;22.87;21.07;;;5.10;1.00;;;;;;2610852;54;20171;-70
2023/03/02 08:04:25;;;;;;;22.30;20.60;;;5.80;1.00;;;;;;2613743;54;20242;-70
2023/03/02 08:10:13;;;;;;;22.10;20.50;;;6.20;1.00;;;;;;2611189;54;20410;-69
2023/03/02 08:16:02;;;;;;;23.43;21.10;;;7.00;1.00;;;;;;2612380;54;20138;-71
2023/03/02 08:21:50;;;;;;;21.00;19.30;;;7.50;1.00;;;;;;2610498;54;20367;-69
2023/03/02 08:27:39;;;;;;;23.40;21.70;;;7.40;1.00;;;;;;2612193;54;20162;-70
2023/03/02 08:37:29;;;;;;;21.70;20.30;;;8.90;1.00;;;;;;2613680;39;20856;-70
2023/03/02 08:43:18;;;;;;;21.50;19.80;;;8.30;1.00;;;;;;2613278;54;20946;-70
2023/03/02 08:49:05;;;;;;;22.23;20.60;;;9.00;1.00;;;;;;2613750;54;20930;-69
2023/03/02 08:54:53;;;;;;;22.90;21.20;;;9.20;1.00;;;;;;2612333;54;20126;-70
2023/03/02 09:00:41;;;;;;;22.37;20.67;;;9.80;1.00;;;;;;2614326;54;20602;-70
2023/03/02 09:06:31;;;;;;;21.67;19.97;;;8.90;1.00;;;;;;2614362;39;20524;-69
2023/03/02 09:12:18;;;;;;;22.13;20.40;;;9.80;1.00;;;;;;2611746;54;20415;-69
2023/03/02 09:18:06;;;;;;;21.10;19.70;;;9.40;1.00;;;;;;2613819;54;20129;-69
2023/03/02 09:23:56;;;;;;;21.77;19.67;;;9.10;1.00;;;;;;2614330;39;20570;-69
2023/03/02 09:29:44;;;;;;;21.47;19.50;;;10.80;1.00;;;;;;2611955;54;20431;-69
2023/03/02 09:32:57;;;;;;;20.50;19.20;;;10.10;1.00;;;;;;2610488;54;20403;-69
2023/03/02 09:35:23;;;;;;;20.90;19.50;;;10.50;1.00;;;;;;2609996;54;20146;-69
2023/03/02 09:41:20;;;;;;;21.97;20.43;;;10.10;1.00;;;;;;2612942;39;20533;-69
2023/03/02 10:00:35;;;;;;;20.23;18.90;;;10.50;1.00;;;;;;2613193;54;20403;-70
2023/03/02 10:06:23;;;;;;;22.20;20.67;;;12.50;1.00;;;;;;2613538;54;20394;-69
2023/03/02 10:12:36;;;;;;;20.07;18.57;;;12.60;1.00;;;;;;2610985;54;20208;-70
2023/03/02 10:24:53;;;;;;;19.90;18.60;;;11.90;1.00;;;;;;2612682;54;20415;-68
2023/03/02 10:30:41;;;;;;;21.47;19.87;;;11.60;1.00;;;;;;2611340;54;20410;-69
2023/03/02 10:39:52;;;;;;;21.50;20.00;;;11.40;1.00;;;;;;2613898;54;20949;-69
2023/03/02 10:45:39;;;;;;;20.73;19.27;;;12.60;1.00;;;;;;2611521;54;20443;-69
2023/03/02 10:51:29;;;;;;;22.00;20.20;;;12.40;1.00;;;;;;2613497;54;20126;-69
2023/03/02 10:57:41;;;;;;;20.70;19.23;;;13.30;1.00;;;;;;2613830;54;20386;-69
2023/03/02 11:03:30;;;;;;;19.80;18.40;;;12.70;1.00;;;;;;2611982;54;20507;-69
2023/03/02 11:09:17;;;;;;;21.60;20.07;;;13.20;1.00;;;;;;2613826;54;20401;-69
2023/03/02 11:27:59;;;;;;;21.43;19.87;;;13.70;1.00;;;;;;2609240;54;20378;-69
2023/03/02 11:40:32;;;;;;;20.27;18.40;;;14.60;1.00;;;;;;2613452;54;20394;-73
2023/03/02 11:42:59;;;;;;;19.80;18.50;;;14.80;1.00;;;;;;2613923;54;20408;-72
2023/03/02 11:48:50;;;;;;;19.00;17.80;;;14.90;1.00;;;;;;2608288;54;20411;-72
2023/03/02 11:54:44;;;;;;;18.43;16.90;;;15.20;1.00;;;;;;2613487;39;20678;-72
2023/03/02 12:00:41;;;;;;;18.00;16.80;;;15.60;1.00;;;;;;2611056;54;20762;-73
2023/03/02 12:06:35;;;;;;;19.07;17.97;;;16.60;1.00;;;;;;2613813;54;20504;-72
2023/03/02 12:18:55;;;;;;;19.60;18.27;;;16.30;1.00;;;;;;2612716;54;20952;-72
2023/03/02 12:24:44;;;;;;;20.47;18.80;;;16.50;1.00;;;;;;2614410;54;20211;-73
2023/03/02 12:30:32;;;;;;;19.33;18.17;;;16.50;1.00;;;;;;2611825;54;20431;-72
2023/03/02 12:52:31;;;;;;;17.90;16.83;;;17.20;1.00;;;;;;2612632;54;20829;-69
2023/03/02 12:58:24;;;;;;;18.13;17.13;;;16.50;1.00;;;;;;2613060;54;20963;-70
2023/03/02 13:04:25;;;;;;;18.70;17.70;;;17.40;1.00;;;;;;2613487;54;20408;-69
2023/03/02 13:10:36;;;;;;;17.83;16.83;;;16.70;1.00;;;;;;2613695;54;20942;-70
2023/03/02 13:13:48;;;;;;;18.80;17.67;;;16.30;1.00;;;;;;2612635;39;20760;-69
2023/03/02 13:16:17;;;;;;;17.60;16.60;;;18.00;1.00;;;;;;2611164;54;20414;-70
2023/03/02 13:22:07;;;;;;;18.20;17.07;;;17.60;1.00;;;;;;2611983;54;20957;-69
2023/03/02 13:27:59;;;;;;;19.43;18.43;;;16.00;1.00;;;;;;2612103;54;20433;-69
2023/03/02 13:33:49;;;;;;;18.23;17.10;;;17.50;1.00;;;;;;2613354;39;20429;-69
2023/03/02 13:39:37;;;;;;;17.20;16.13;;;15.90;1.00;;;;;;2611696;39;20748;-69
2023/03/02 13:48:59;;;;;;;17.13;16.17;;;15.50;1.00;;;;;;2613936;54;20412;-70
2023/03/02 13:54:46;;;;;;;17.20;16.10;;;15.20;1.00;;;;;;2611744;54;20379;-69
2023/03/02 14:00:35;;;;;;;17.77;16.77;;;15.40;1.00;;;;;;2610044;54;20941;-69
2023/03/02 14:06:22;;;;;;;18.20;17.07;;;15.70;1.00;;;;;;2613314;54;20956;-69
2023/03/02 14:18:45;;;;;;;18.23;17.13;;;17.10;1.00;;;;;;2612244;39;20850;-70
2023/03/02 14:24:33;;;;;;;19.33;18.00;;;16.90;1.00;;;;;;2612384;54;20869;-69
2023/03/02 14:30:21;;;;;;;20.73;19.33;;;15.10;1.00;;;;;;2612797;54;20130;-69
2023/03/02 14:36:16;;;;;;;21.13;19.77;;;15.60;1.00;;;;;;2611980;54;20174;-70
2023/03/02 14:48:48;;;;;;;20.90;19.50;;;15.60;1.00;;;;;;2612750;54;20403;-70
2023/03/02 15:00:49;;;;;;;21.27;19.53;;;16.20;1.00;;;;;;2611782;54;20459;-69
2023/03/02 15:06:40;;;;;;;21.10;19.60;;;16.10;1.00;;;;;;2611582;54;20126;-70
2023/03/02 15:12:27;;;;;;;22.77;21.00;;;15.00;1.00;;;;;;2613038;54;20568;-70
2023/03/02 15:18:16;;;;;;;23.37;21.67;;;14.10;1.00;;;;;;2612590;54;20150;-69
2023/03/02 15:24:04;;;;;;;21.17;19.27;;;14.50;1.00;;;;;;2612359;54;20412;-69
2023/03/02 15:29:51;;;;;;;23.07;21.13;;;14.50;1.00;;;;;;2613548;54;20375;-70
2023/03/02 15:35:39;;;;;;;23.33;21.63;;;14.00;1.00;;;;;;2613820;54;20130;-69
2023/03/02 15:41:27;;;;;;;21.33;19.50;;;12.60;1.00;;;;;;2611817;54;20262;-69
2023/03/02 15:44:20;;;;;;;23.60;22.00;;;12.20;1.00;;;;;;2611729;54;20562;-70
2023/03/02 15:46:51;;;;;;;21.27;19.57;;;11.30;1.00;;;;;;2613138;54;20206;-70
2023/03/02 15:52:40;;;;;;;23.27;21.33;;;11.00;1.00;;;;;;2613638;54;20975;-70
2023/03/02 15:58:27;;;;;;;23.17;21.13;;;12.30;1.00;;;;;;2612164;54;20387;-69
2023/03/02 16:04:15;;;;;;;23.50;21.63;;;12.50;1.00;;;;;;2613864;54;20167;-70
2023/03/02 16:10:04;;;;;;;24.23;22.13;;;12.10;1.00;;;;;;2613851;46;20395;-70
2023/03/02 16:15:52;;;;;;;24.30;22.43;;;11.40;1.00;;;;;;2612566;54;20391;-69
2023/03/02 16:21:40;;;;;;;25.23;23.20;;;11.50;1.00;;;;;;2613507;54;20235;-70
2023/03/02 16:27:29;;;;;;;26.97;24.80;;;11.30;1.00;;;;;;2614183;54;20151;-70
2023/03/02 16:33:17;;;;;;;25.70;23.27;;;10.70;1.00;;;;;;2613641;39;20772;-69
2023/03/02 16:39:06;;;;;;;24.70;22.80;;;10.20;1.00;;;;;;2613858;54;20379;-70
2023/03/02 16:48:45;;;;;;;24.17;22.37;;;9.20;1.00;;;;;;2611728;54;20398;-72
2023/03/02 16:54:32;;;;;;;25.93;23.47;;;8.40;1.00;;;;;;2612732;54;20411;-71
2023/03/02 17:00:22;;;;;;;26.20;24.00;;;8.00;1.00;;;;;;2613525;54;20154;-73
2023/03/02 17:06:12;;;;;;;25.03;22.80;;;7.90;1.00;;;;;;2614180;39;20838;-72
2023/03/02 17:11:59;;;;;;;24.83;22.63;;;7.70;1.00;;;;;;2610939;54;20370;-72
2023/03/02 17:17:47;;;;;;;26.93;24.30;;;7.40;1.00;;;;;;2610446;54;20122;-73
2023/03/02 17:23:35;;;;;;;26.10;23.80;;;7.30;1.00;;;;;;2611841;54;20126;-72
2023/03/02 17:29:23;;;;;;;25.13;22.77;;;7.20;1.00;;;;;;2612431;54;20366;-73
2023/03/02 17:35:12;;;;;;;25.33;22.90;;;7.10;1.00;;;;;;2612560;54;20399;-72
2023/03/02 17:41:02;;;;;;;28.80;26.30;;;6.90;1.00;;;;;;2613136;54;20460;-72
2023/03/02 17:44:14;;;;;;;28.20;25.40;;;6.80;5.00;;;;;;2612687;54;20426;-73
2023/03/02 17:46:43;;;;;;;28.03;24.53;;;6.70;10.80;;;;;;2612587;54;20407;-72
2023/03/02 17:52:30;;;;;;;28.37;25.47;;;6.30;18.40;;;;;;2614121;54;20432;-73
2023/03/02 17:58:18;;;;;;;29.43;25.53;;;6.20;23.40;;;;;;2613297;54;20227;-73
2023/03/02 18:04:06;;;;;;;29.03;25.33;;;5.90;26.70;;;;;;2615213;39;20507;-72
2023/03/02 18:09:54;;;;;;;29.77;26.57;;;5.70;28.70;;;;;;2614479;54;20129;-72
2023/03/02 18:15:41;;;;;;;29.50;26.53;;;5.60;34.00;;;;;;2613235;54;20676;-73
2023/03/02 18:21:29;;;;;;;28.13;25.23;;;5.40;39.60;;;;;;2614559;39;20505;-73
2023/03/02 18:27:17;;;;;;;29.17;26.23;;;5.40;43.10;;;;;;2612118;54;20150;-72
2023/03/02 18:33:05;;;;;;;29.90;25.90;;;5.10;52.60;;;;;;2614080;54;20138;-72
2023/03/02 18:38:53;;;;;;;32.47;25.77;;;4.90;64.60;;;;;;2612735;39;20511;-73
2023/03/02 18:48:48;;;;;;;26.90;23.80;;;4.80;84.20;;;;;;2614294;39;20729;-74
2023/03/02 18:54:36;;;;;;;26.87;24.17;;;4.50;98.60;;;;;;2613810;54;20386;-72
2023/03/02 19:00:25;;;;;;;30.20;27.10;;;4.40;89.70;;;;;;2613329;39;20746;-73
2023/03/02 19:06:13;;;;;;;28.00;25.00;;;4.10;92.80;;;;;;2613434;54;20403;-73
2023/03/02 19:12:02;;;;;;;36.07;25.03;;;4.10;97.20;;;;;;2612602;54;20375;-73
2023/03/02 19:17:50;;;;;;;26.63;23.63;;;4.00;99.90;;;;;;2612327;54;20387;-73
2023/03/02 19:23:39;;;;;;;37.10;27.37;;;3.80;99.90;;;;;;2610295;54;20487;-72
2023/03/02 19:29:27;;;;;;;30.97;25.00;;;3.70;99.90;;;;;;2612694;46;20443;-74
2023/03/02 19:35:17;;;;;;;30.63;25.50;;;3.50;99.90;;;;;;2613189;54;20170;-72
2023/03/02 19:41:04;;;;;;;35.70;25.30;;;3.50;99.90;;;;;;2613675;54;20366;-72
2023/03/02 19:44:15;;;;;;;31.60;26.20;;;3.50;99.90;;;;;;2612048;47;20409;-73
2023/03/02 19:46:41;;;;;;;33.17;24.87;;;3.40;99.90;;;;;;2613422;54;20293;-73
2023/03/02 19:52:29;;;;;;;32.67;25.50;;;3.20;99.90;;;;;;2613170;54;20158;-73
2023/03/02 19:58:18;;;;;;;35.70;27.03;;;3.00;99.90;;;;;;2613348;39;20751;-72
2023/03/02 20:04:06;;;;;;;38.50;29.00;;;2.90;99.90;;;;;;2610049;54;20435;-74
2023/03/02 20:09:54;;;;;;;35.87;28.07;;;2.80;99.90;;;;;;2613346;39;20916;-74
2023/03/02 20:15:45;;;;;;;41.47;28.37;;;2.60;99.90;;;;;;2612737;54;20534;-73
2023/03/02 20:21:33;;;;;;;41.57;29.50;;;2.50;99.90;;;;;;2613960;31;20914;-74
2023/03/02 20:27:21;;;;;;;34.63;26.23;;;2.40;99.90;;;;;;2612931;54;20631;-74
2023/03/02 20:33:10;;;;;;;42.10;29.20;;;2.20;99.90;;;;;;2613462;54;20133;-74
2023/03/02 20:39:12;;;;;;;47.10;29.50;;;2.10;99.90;;;;;;2613512;54;20367;-73
2023/03/02 20:48:46;;;;;;;50.77;31.70;;;1.90;99.90;;;;;;2612899;54;20950;-73
2023/03/02 20:54:38;;;;;;;51.83;29.37;;;1.80;99.90;;;;;;2612454;54;20370;-73
2023/03/02 21:00:28;;;;;;;44.60;28.10;;;1.80;99.90;;;;;;2610418;54;20375;-74
2023/03/02 21:06:17;;;;;;;47.83;28.87;;;1.70;99.90;;;;;;2613355;54;20374;-73
2023/03/02 21:12:07;;;;;;;50.80;29.97;;;1.70;99.90;;;;;;2613050;54;20420;-72
2023/03/02 21:17:57;;;;;;;54.53;33.07;;;1.60;99.90;;;;;;2612394;39;20923;-73
2023/03/02 21:23:45;;;;;;;49.57;30.53;;;1.50;99.90;;;;;;2607606;54;20438;-73
2023/03/02 21:29:33;;;;;;;48.80;32.73;;;1.40;99.90;;;;;;2611629;54;20507;-73
2023/03/02 21:35:22;;;;;;;63.57;35.13;;;1.50;99.90;;;;;;2612505;54;20165;-72
2023/03/02 21:41:10;;;;;;;63.57;36.20;;;1.60;99.90;;;;;;2613802;54;20459;-73
2023/03/02 21:44:14;;;;;;;66.93;36.90;;;1.60;99.90;;;;;;2613372;47;20514;-73
2023/03/02 21:46:40;;;;;;;66.30;38.50;;;1.70;99.90;;;;;;2610482;39;20706;-73
2023/03/02 21:52:27;;;;;;;71.10;39.67;;;1.70;99.90;;;;;;2613468;54;20367;-73
2023/03/02 21:58:15;;;;;;;105.73;46.97;;;1.80;99.90;;;;;;2610792;54;20138;-73
2023/03/02 22:04:03;;;;;;;87.53;53.53;;;1.80;99.90;;;;;;2614235;54;20443;-73
2023/03/02 22:09:51;;;;;;;81.00;46.33;;;1.80;99.90;;;;;;2613494;54;20411;-73
2023/03/02 22:15:40;;;;;;;87.33;42.57;;;1.80;99.90;;;;;;2613253;54;20126;-73
2023/03/02 22:27:53;;;;;;;74.27;42.83;;;1.80;99.90;;;;;;2614721;39;20764;-73
2023/03/02 22:33:40;;;;;;;93.70;43.80;;;1.80;99.90;;;;;;2613605;54;20491;-73
2023/03/02 22:39:31;;;;;;;87.20;43.13;;;1.80;99.90;;;;;;2614084;54;20541;-73
2023/03/02 22:48:49;;;;;;;79.93;43.57;;;1.80;99.90;;;;;;2613835;54;20408;-73
2023/03/02 22:54:37;;;;;;;88.87;42.73;;;1.80;99.90;;;;;;2611422;54;21124;-73
2023/03/02 23:00:38;;;;;;;80.23;42.23;;;1.80;99.90;;;;;;2613308;54;20130;-72
2023/03/02 23:06:30;;;;;;;77.40;40.13;;;1.70;99.90;;;;;;2611799;54;20476;-74
2023/03/02 23:18:32;;;;;;;79.73;38.57;;;1.60;99.90;;;;;;2614726;54;20346;-72
2023/03/02 23:24:20;;;;;;;85.03;40.40;;;1.70;99.90;;;;;;2613726;54;20186;-72
2023/03/02 23:30:09;;;;;;;87.17;42.00;;;1.70;99.90;;;;;;2613400;54;20395;-73
2023/03/02 23:35:57;;;;;;;82.70;43.37;;;1.70;99.90;;;;;;2614250;54;20953;-73
2023/03/02 23:41:44;;;;;;;83.87;39.23;;;1.70;99.90;;;;;;2614125;54;20218;-73
2023/03/02 23:44:14;;;;;;;93.00;44.50;;;1.70;99.90;;;;;;2612644;54;20551;-72
2023/03/02 23:46:40;;;;;;;86.77;41.73;;;1.70;99.90;;;;;;2613799;39;20502;-73
2023/03/02 23:52:28;;;;;;;94.83;45.03;;;1.70;99.90;;;;;;2613637;54;20129;-73
2023/03/02 23:58:16;;;;;;;104.83;46.97;;;1.70;99.90;;;;;;2613248;54;20374;-73
